JZA655 KPDX-CYVR
Flight info
| Callsign | JZA655 |
|---|---|
| Flight time | 0h 52m |
| Altitude | 24000 |
| Route | DCT BTG J1 SEA DCT PAE GRIZZ9 |
| Aircraft | DH8D/M-SDE2E3FGRY/H |
Departure
| Time | 2026-05-08 03:11 |
|---|---|
| Airport | Portland International Airport (KPDX) |
Arrival
| Time | 2026-05-08 04:03 |
|---|---|
| Airport | Vancouver International Airport (CYVR) |
| Time | Latitude | Longitude | Altitude | Speed | Heading |
|---|---|---|---|---|---|
| 2026-05-08 02:45 | 45.59006 | -122.59106 | 38 ft | 0 kts | 210° |
| 2026-05-08 03:00 | 45.59022 | -122.59093 | 38 ft | 4 kts | 207° |
| 2026-05-08 03:00 | 45.59046 | -122.59080 | 38 ft | 4 kts | 190° |
| 2026-05-08 03:01 | 45.59072 | -122.59080 | 38 ft | 4 kts | 161° |
| 2026-05-08 03:01 | 45.59091 | -122.59100 | 38 ft | 2 kts | 120° |
| 2026-05-08 03:01 | 45.59094 | -122.59107 | 38 ft | 0 kts | 119° |
| 2026-05-08 03:05 | 45.59094 | -122.59106 | 38 ft | 2 kts | 119° |
| 2026-05-08 03:05 | 45.59083 | -122.59079 | 38 ft | 7 kts | 120° |
| 2026-05-08 03:06 | 45.59045 | -122.58984 | 38 ft | 15 kts | 118° |
| 2026-05-08 03:06 | 45.58981 | -122.58842 | 38 ft | 16 kts | 122° |
| 2026-05-08 03:06 | 45.58952 | -122.58726 | 38 ft | 12 kts | 85° |
| 2026-05-08 03:06 | 45.58960 | -122.58601 | 38 ft | 15 kts | 89° |
| 2026-05-08 03:07 | 45.58922 | -122.58455 | 38 ft | 15 kts | 120° |
| 2026-05-08 03:07 | 45.58886 | -122.58359 | 38 ft | 8 kts | 119° |
| 2026-05-08 03:07 | 45.58852 | -122.58272 | 38 ft | 15 kts | 120° |
| 2026-05-08 03:07 | 45.58786 | -122.58101 | 38 ft | 24 kts | 118° |
| 2026-05-08 03:08 | 45.58697 | -122.57878 | 38 ft | 28 kts | 118° |
| 2026-05-08 03:08 | 45.58602 | -122.57629 | 38 ft | 29 kts | 121° |
| 2026-05-08 03:08 | 45.58505 | -122.57381 | 38 ft | 29 kts | 119° |
| 2026-05-08 03:08 | 45.58422 | -122.57170 | 38 ft | 18 kts | 120° |
| 2026-05-08 03:09 | 45.58383 | -122.57074 | 38 ft | 6 kts | 119° |
| 2026-05-08 03:09 | 45.58360 | -122.57013 | 38 ft | 8 kts | 118° |
| 2026-05-08 03:09 | 45.58324 | -122.56921 | 38 ft | 14 kts | 120° |
| 2026-05-08 03:09 | 45.58274 | -122.56790 | 38 ft | 13 kts | 115° |
| 2026-05-08 03:10 | 45.58296 | -122.56707 | 38 ft | 9 kts | 24° |
| 2026-05-08 03:10 | 45.58365 | -122.56699 | 38 ft | 6 kts | 315° |
| 2026-05-08 03:10 | 45.58413 | -122.56822 | 38 ft | 38 kts | 299° |
| 2026-05-08 03:10 | 45.58674 | -122.57493 | 38 ft | 113 kts | 299° |
| 2026-05-08 03:11 | 45.59123 | -122.58663 | 282 ft | 142 kts | 298° |
| 2026-05-08 03:11 | 45.59627 | -122.59925 | 961 ft | 150 kts | 299° |
| 2026-05-08 03:11 | 45.60174 | -122.61294 | 1536 ft | 162 kts | 301° |
| 2026-05-08 03:11 | 45.60751 | -122.62665 | 2259 ft | 163 kts | 302° |
| 2026-05-08 03:12 | 45.61366 | -122.64089 | 2982 ft | 166 kts | 301° |
| 2026-05-08 03:12 | 45.62104 | -122.65354 | 3737 ft | 165 kts | 322° |
| 2026-05-08 03:12 | 45.63200 | -122.65950 | 4342 ft | 176 kts | 353° |
| 2026-05-08 03:12 | 45.64475 | -122.65759 | 4891 ft | 189 kts | 12° |
| 2026-05-08 03:13 | 45.65754 | -122.65168 | 5426 ft | 203 kts | 19° |
| 2026-05-08 03:13 | 45.67108 | -122.64412 | 6009 ft | 210 kts | 21° |
| 2026-05-08 03:13 | 45.68441 | -122.63612 | 6627 ft | 212 kts | 21° |
| 2026-05-08 03:13 | 45.69776 | -122.62740 | 7426 ft | 207 kts | 23° |
| 2026-05-08 03:14 | 45.70970 | -122.61910 | 8115 ft | 207 kts | 24° |
| 2026-05-08 03:14 | 45.72277 | -122.60982 | 8764 ft | 211 kts | 23° |
| 2026-05-08 03:14 | 45.73618 | -122.60037 | 9349 ft | 216 kts | 21° |
| 2026-05-08 03:14 | 45.75065 | -122.59373 | 9895 ft | 219 kts | 8° |
| 2026-05-08 03:15 | 45.76562 | -122.58978 | 10610 ft | 215 kts | 6° |
| 2026-05-08 03:15 | 45.78036 | -122.58605 | 11175 ft | 219 kts | 4° |
| 2026-05-08 03:15 | 45.79540 | -122.58317 | 11668 ft | 225 kts | 4° |
| 2026-05-08 03:15 | 45.81125 | -122.58025 | 12071 ft | 235 kts | 1° |
| 2026-05-08 03:16 | 45.82765 | -122.57752 | 12414 ft | 244 kts | 1° |
| 2026-05-08 03:16 | 45.84452 | -122.57514 | 12797 ft | 249 kts | 1° |
| 2026-05-08 03:16 | 45.86141 | -122.57281 | 13200 ft | 252 kts | 1° |
| 2026-05-08 03:16 | 45.87857 | -122.57037 | 13603 ft | 255 kts | 1° |
| 2026-05-08 03:17 | 45.89554 | -122.56784 | 13997 ft | 256 kts | 1° |
| 2026-05-08 03:17 | 45.91314 | -122.56512 | 14388 ft | 258 kts | 1° |
| 2026-05-08 03:17 | 45.93047 | -122.56240 | 14760 ft | 259 kts | 1° |
| 2026-05-08 03:17 | 45.94813 | -122.55954 | 15131 ft | 260 kts | 1° |
| 2026-05-08 03:18 | 45.96569 | -122.55669 | 15476 ft | 261 kts | 1° |
| 2026-05-08 03:18 | 45.98383 | -122.55374 | 15830 ft | 262 kts | 1° |
| 2026-05-08 03:18 | 46.00170 | -122.55079 | 16161 ft | 264 kts | 1° |
| 2026-05-08 03:18 | 46.01954 | -122.54786 | 16469 ft | 265 kts | 1° |
| 2026-05-08 03:19 | 46.03723 | -122.54499 | 16767 ft | 267 kts | 1° |
| 2026-05-08 03:19 | 46.05487 | -122.54212 | 17060 ft | 268 kts | 1° |
| 2026-05-08 03:19 | 46.07067 | -122.53951 | 17324 ft | 268 kts | 1° |
| 2026-05-08 03:19 | 46.08895 | -122.53649 | 17607 ft | 269 kts | 1° |
| 2026-05-08 03:20 | 46.10718 | -122.53350 | 17882 ft | 270 kts | 1° |
| 2026-05-08 03:20 | 46.12543 | -122.53046 | 18145 ft | 271 kts | 1° |
| 2026-05-08 03:20 | 46.14353 | -122.52749 | 18395 ft | 273 kts | 1° |
| 2026-05-08 03:20 | 46.16171 | -122.52451 | 18632 ft | 274 kts | 1° |
| 2026-05-08 03:21 | 46.18017 | -122.52144 | 18870 ft | 275 kts | 1° |
| 2026-05-08 03:21 | 46.19894 | -122.51836 | 19096 ft | 276 kts | 1° |
| 2026-05-08 03:21 | 46.21769 | -122.51530 | 19323 ft | 277 kts | 1° |
| 2026-05-08 03:21 | 46.23612 | -122.51224 | 19539 ft | 278 kts | 1° |
| 2026-05-08 03:22 | 46.25497 | -122.50913 | 19754 ft | 279 kts | 1° |
| 2026-05-08 03:22 | 46.27403 | -122.50601 | 19961 ft | 281 kts | 1° |
| 2026-05-08 03:22 | 46.29309 | -122.50286 | 20159 ft | 282 kts | 1° |
| 2026-05-08 03:22 | 46.31218 | -122.49968 | 20360 ft | 283 kts | 1° |
| 2026-05-08 03:23 | 46.33111 | -122.49655 | 20555 ft | 284 kts | 1° |
| 2026-05-08 03:23 | 46.35026 | -122.49341 | 20739 ft | 285 kts | 1° |
| 2026-05-08 03:23 | 46.36961 | -122.49020 | 20927 ft | 286 kts | 1° |
| 2026-05-08 03:23 | 46.38895 | -122.48696 | 21109 ft | 286 kts | 1° |
| 2026-05-08 03:24 | 46.40803 | -122.48381 | 21276 ft | 288 kts | 1° |
| 2026-05-08 03:24 | 46.42355 | -122.48125 | 21406 ft | 289 kts | 1° |
| 2026-05-08 03:24 | 46.44347 | -122.47796 | 21575 ft | 290 kts | 1° |
| 2026-05-08 03:24 | 46.46308 | -122.47466 | 21745 ft | 290 kts | 1° |
| 2026-05-08 03:25 | 46.48283 | -122.47137 | 21903 ft | 291 kts | 1° |
| 2026-05-08 03:25 | 46.50254 | -122.46811 | 22051 ft | 292 kts | 0° |
| 2026-05-08 03:25 | 46.52225 | -122.46486 | 22205 ft | 293 kts | 0° |
| 2026-05-08 03:25 | 46.54236 | -122.46150 | 22359 ft | 293 kts | 0° |
| 2026-05-08 03:26 | 46.56211 | -122.45816 | 22497 ft | 294 kts | 0° |
| 2026-05-08 03:26 | 46.58281 | -122.45471 | 22637 ft | 295 kts | 0° |
| 2026-05-08 03:26 | 46.60278 | -122.45140 | 22776 ft | 296 kts | 0° |
| 2026-05-08 03:26 | 46.62358 | -122.44796 | 22889 ft | 296 kts | 1° |
| 2026-05-08 03:27 | 46.64333 | -122.44471 | 23014 ft | 297 kts | 0° |
| 2026-05-08 03:27 | 46.66349 | -122.44132 | 23142 ft | 298 kts | 1° |
| 2026-05-08 03:27 | 46.68317 | -122.43799 | 23261 ft | 298 kts | 1° |
| 2026-05-08 03:27 | 46.70318 | -122.43462 | 23364 ft | 299 kts | 1° |
| 2026-05-08 03:28 | 46.72336 | -122.43123 | 23477 ft | 300 kts | 1° |
| 2026-05-08 03:28 | 46.74358 | -122.42784 | 23591 ft | 300 kts | 1° |
| 2026-05-08 03:28 | 46.76270 | -122.42463 | 23698 ft | 301 kts | 1° |
| 2026-05-08 03:28 | 46.78165 | -122.42140 | 23798 ft | 301 kts | 1° |
| 2026-05-08 03:29 | 46.80237 | -122.41787 | 23902 ft | 302 kts | 0° |
| 2026-05-08 03:29 | 46.82158 | -122.41464 | 23995 ft | 302 kts | 0° |
| 2026-05-08 03:29 | 46.84168 | -122.41128 | 24047 ft | 304 kts | 0° |
| 2026-05-08 03:29 | 46.86256 | -122.40782 | 24069 ft | 308 kts | 0° |
| 2026-05-08 03:30 | 46.90439 | -122.40085 | 24086 ft | 313 kts | 1° |
| 2026-05-08 03:30 | 46.94696 | -122.39365 | 24091 ft | 318 kts | 1° |
| 2026-05-08 03:31 | 46.99029 | -122.38629 | 24092 ft | 322 kts | 1° |
| 2026-05-08 03:31 | 47.02946 | -122.37965 | 24092 ft | 324 kts | 1° |
| 2026-05-08 03:32 | 47.05164 | -122.37591 | 24092 ft | 325 kts | 1° |
| 2026-05-08 03:32 | 47.07352 | -122.37219 | 24093 ft | 326 kts | 1° |
| 2026-05-08 03:32 | 47.09539 | -122.36845 | 24092 ft | 327 kts | 1° |
| 2026-05-08 03:32 | 47.11054 | -122.36585 | 24091 ft | 328 kts | 1° |
| 2026-05-08 03:33 | 47.13143 | -122.36226 | 24092 ft | 328 kts | 1° |
| 2026-05-08 03:33 | 47.15375 | -122.35844 | 24092 ft | 329 kts | 1° |
| 2026-05-08 03:33 | 47.16863 | -122.35589 | 24093 ft | 329 kts | 1° |
| 2026-05-08 03:33 | 47.19289 | -122.35174 | 24093 ft | 330 kts | 1° |
| 2026-05-08 03:34 | 47.21545 | -122.34789 | 24093 ft | 330 kts | 1° |
| 2026-05-08 03:34 | 47.23768 | -122.34409 | 24093 ft | 331 kts | 1° |
| 2026-05-08 03:34 | 47.25779 | -122.34065 | 24093 ft | 331 kts | 1° |
| 2026-05-08 03:34 | 47.28066 | -122.33673 | 24094 ft | 331 kts | 1° |
| 2026-05-08 03:35 | 47.30351 | -122.33282 | 24095 ft | 331 kts | 1° |
| 2026-05-08 03:35 | 47.32395 | -122.32931 | 24096 ft | 331 kts | 1° |
| 2026-05-08 03:35 | 47.34607 | -122.32551 | 24097 ft | 331 kts | 1° |
| 2026-05-08 03:35 | 47.36768 | -122.32179 | 24098 ft | 332 kts | 1° |
| 2026-05-08 03:36 | 47.39060 | -122.31784 | 24099 ft | 332 kts | 1° |
| 2026-05-08 03:36 | 47.41322 | -122.31395 | 24100 ft | 332 kts | 1° |
| 2026-05-08 03:36 | 47.43604 | -122.31004 | 24100 ft | 332 kts | 1° |
| 2026-05-08 03:36 | 47.45825 | -122.30714 | 24100 ft | 330 kts | 359° |
| 2026-05-08 03:37 | 47.47855 | -122.30563 | 24100 ft | 330 kts | 357° |
| 2026-05-08 03:37 | 47.50134 | -122.30455 | 24031 ft | 332 kts | 356° |
| 2026-05-08 03:37 | 47.52043 | -122.30386 | 23862 ft | 337 kts | 356° |
| 2026-05-08 03:37 | 47.54373 | -122.30294 | 23632 ft | 343 kts | 357° |
| 2026-05-08 03:38 | 47.56758 | -122.30177 | 23380 ft | 349 kts | 358° |
| 2026-05-08 03:38 | 47.59167 | -122.30038 | 23115 ft | 354 kts | 358° |
| 2026-05-08 03:38 | 47.61613 | -122.29876 | 22841 ft | 359 kts | 358° |
| 2026-05-08 03:38 | 47.64078 | -122.29705 | 22539 ft | 358 kts | 359° |
| 2026-05-08 03:39 | 47.66536 | -122.29529 | 22268 ft | 351 kts | 359° |
| 2026-05-08 03:39 | 47.68921 | -122.29363 | 22000 ft | 345 kts | 359° |
| 2026-05-08 03:39 | 47.71239 | -122.29205 | 21738 ft | 340 kts | 359° |
| 2026-05-08 03:39 | 47.73579 | -122.29050 | 21473 ft | 336 kts | 359° |
| 2026-05-08 03:40 | 47.75865 | -122.28902 | 21212 ft | 333 kts | 359° |
| 2026-05-08 03:40 | 47.78136 | -122.28754 | 20953 ft | 329 kts | 359° |
| 2026-05-08 03:40 | 47.80400 | -122.28609 | 20695 ft | 326 kts | 359° |
| 2026-05-08 03:40 | 47.82317 | -122.28488 | 20477 ft | 323 kts | 359° |
| 2026-05-08 03:41 | 47.84539 | -122.28343 | 20223 ft | 319 kts | 359° |
| 2026-05-08 03:41 | 47.86723 | -122.28196 | 19974 ft | 316 kts | 359° |
| 2026-05-08 03:41 | 47.88866 | -122.28054 | 19729 ft | 313 kts | 359° |
| 2026-05-08 03:41 | 47.91012 | -122.27917 | 19510 ft | 308 kts | 358° |
| 2026-05-08 03:42 | 47.93073 | -122.28045 | 19390 ft | 302 kts | 349° |
| 2026-05-08 03:42 | 47.95089 | -122.28573 | 19217 ft | 300 kts | 345° |
| 2026-05-08 03:42 | 47.97102 | -122.29221 | 19013 ft | 300 kts | 344° |
| 2026-05-08 03:42 | 47.99096 | -122.29859 | 18793 ft | 302 kts | 345° |
| 2026-05-08 03:43 | 48.01146 | -122.30494 | 18557 ft | 304 kts | 345° |
| 2026-05-08 03:43 | 48.03209 | -122.31108 | 18314 ft | 306 kts | 346° |
| 2026-05-08 03:43 | 48.05244 | -122.31699 | 18071 ft | 307 kts | 346° |
| 2026-05-08 03:43 | 48.07302 | -122.32293 | 17823 ft | 309 kts | 346° |
| 2026-05-08 03:44 | 48.09396 | -122.32894 | 17572 ft | 312 kts | 346° |
| 2026-05-08 03:44 | 48.11508 | -122.33506 | 17314 ft | 315 kts | 346° |
| 2026-05-08 03:44 | 48.13627 | -122.34121 | 17056 ft | 318 kts | 346° |
| 2026-05-08 03:44 | 48.15500 | -122.34667 | 16827 ft | 320 kts | 346° |
| 2026-05-08 03:45 | 48.17488 | -122.35246 | 16585 ft | 322 kts | 346° |
| 2026-05-08 03:45 | 48.19650 | -122.35877 | 16321 ft | 324 kts | 346° |
| 2026-05-08 03:45 | 48.21825 | -122.36512 | 16055 ft | 325 kts | 347° |
| 2026-05-08 03:45 | 48.24016 | -122.37152 | 15787 ft | 327 kts | 347° |
| 2026-05-08 03:46 | 48.26214 | -122.37793 | 15518 ft | 327 kts | 347° |
| 2026-05-08 03:46 | 48.28389 | -122.38428 | 15252 ft | 328 kts | 347° |
| 2026-05-08 03:46 | 48.30601 | -122.39075 | 14982 ft | 328 kts | 347° |
| 2026-05-08 03:46 | 48.32836 | -122.39730 | 14708 ft | 328 kts | 347° |
| 2026-05-08 03:47 | 48.35076 | -122.40386 | 14433 ft | 328 kts | 347° |
| 2026-05-08 03:47 | 48.37314 | -122.41042 | 14160 ft | 327 kts | 347° |
| 2026-05-08 03:47 | 48.39525 | -122.41691 | 13890 ft | 327 kts | 347° |
| 2026-05-08 03:47 | 48.41687 | -122.42327 | 13625 ft | 326 kts | 347° |
| 2026-05-08 03:48 | 48.43855 | -122.42965 | 13360 ft | 325 kts | 347° |
| 2026-05-08 03:48 | 48.46042 | -122.43609 | 13092 ft | 325 kts | 347° |
| 2026-05-08 03:48 | 48.48270 | -122.44267 | 12820 ft | 324 kts | 348° |
| 2026-05-08 03:48 | 48.50454 | -122.44915 | 12553 ft | 323 kts | 348° |
| 2026-05-08 03:49 | 48.52428 | -122.45502 | 12310 ft | 321 kts | 348° |
| 2026-05-08 03:49 | 48.54546 | -122.46125 | 12087 ft | 318 kts | 348° |
| 2026-05-08 03:49 | 48.56634 | -122.46741 | 11946 ft | 312 kts | 348° |
| 2026-05-08 03:49 | 48.58668 | -122.47338 | 11743 ft | 309 kts | 348° |
| 2026-05-08 03:50 | 48.60748 | -122.47946 | 11494 ft | 307 kts | 348° |
| 2026-05-08 03:50 | 48.62836 | -122.48562 | 11218 ft | 307 kts | 348° |
| 2026-05-08 03:50 | 48.64929 | -122.49184 | 10926 ft | 306 kts | 348° |
| 2026-05-08 03:50 | 48.67023 | -122.49804 | 10624 ft | 306 kts | 348° |
| 2026-05-08 03:51 | 48.69094 | -122.50490 | 10354 ft | 305 kts | 342° |
| 2026-05-08 03:51 | 48.70945 | -122.51877 | 10237 ft | 298 kts | 324° |
| 2026-05-08 03:51 | 48.72467 | -122.53928 | 10179 ft | 291 kts | 313° |
| 2026-05-08 03:51 | 48.73784 | -122.56209 | 10127 ft | 286 kts | 309° |
| 2026-05-08 03:52 | 48.75035 | -122.58534 | 10069 ft | 283 kts | 308° |
| 2026-05-08 03:52 | 48.76208 | -122.60793 | 10037 ft | 280 kts | 307° |
| 2026-05-08 03:52 | 48.77378 | -122.63097 | 10025 ft | 278 kts | 307° |
| 2026-05-08 03:52 | 48.78525 | -122.65370 | 10020 ft | 275 kts | 307° |
| 2026-05-08 03:53 | 48.79623 | -122.67540 | 10018 ft | 272 kts | 307° |
| 2026-05-08 03:53 | 48.80778 | -122.69813 | 10017 ft | 270 kts | 307° |
| 2026-05-08 03:53 | 48.81926 | -122.72064 | 10017 ft | 269 kts | 307° |
| 2026-05-08 03:53 | 48.83059 | -122.74283 | 10016 ft | 267 kts | 307° |
| 2026-05-08 03:54 | 48.84176 | -122.76469 | 10016 ft | 266 kts | 307° |
| 2026-05-08 03:54 | 48.85245 | -122.78563 | 10022 ft | 266 kts | 307° |
| 2026-05-08 03:54 | 48.86378 | -122.80786 | 10023 ft | 276 kts | 307° |
| 2026-05-08 03:54 | 48.87367 | -122.82730 | 10010 ft | 275 kts | 307° |
| 2026-05-08 03:55 | 48.88394 | -122.84770 | 10012 ft | 271 kts | 307° |
| 2026-05-08 03:55 | 48.89525 | -122.87000 | 10012 ft | 266 kts | 307° |
| 2026-05-08 03:55 | 48.90672 | -122.89252 | 10012 ft | 262 kts | 307° |
| 2026-05-08 03:55 | 48.91808 | -122.91479 | 10013 ft | 259 kts | 307° |
| 2026-05-08 03:56 | 48.92748 | -122.93328 | 10013 ft | 256 kts | 307° |
| 2026-05-08 03:56 | 48.93812 | -122.95427 | 10013 ft | 254 kts | 307° |
| 2026-05-08 03:56 | 48.94911 | -122.97177 | 10008 ft | 253 kts | 323° |
| 2026-05-08 03:56 | 48.96536 | -122.98199 | 10008 ft | 251 kts | 350° |
| 2026-05-08 03:57 | 48.98276 | -122.98201 | 10037 ft | 250 kts | 8° |
| 2026-05-08 03:57 | 48.99956 | -122.97539 | 9632 ft | 256 kts | 19° |
| 2026-05-08 03:57 | 49.01017 | -122.96842 | 9277 ft | 257 kts | 26° |
| 2026-05-08 03:57 | 49.02528 | -122.95556 | 8914 ft | 253 kts | 32° |
| 2026-05-08 03:58 | 49.04084 | -122.94403 | 8456 ft | 251 kts | 17° |
| 2026-05-08 03:58 | 49.05791 | -122.93931 | 7981 ft | 249 kts | 4° |
| 2026-05-08 03:58 | 49.07484 | -122.93798 | 7509 ft | 241 kts | 1° |
| 2026-05-08 03:58 | 49.09116 | -122.93758 | 7037 ft | 237 kts | 356° |
| 2026-05-08 03:59 | 49.10720 | -122.94086 | 6551 ft | 233 kts | 346° |
| 2026-05-08 03:59 | 49.12229 | -122.94883 | 5971 ft | 228 kts | 336° |
| 2026-05-08 03:59 | 49.13602 | -122.95970 | 5417 ft | 222 kts | 330° |
| 2026-05-08 03:59 | 49.14887 | -122.97174 | 4785 ft | 222 kts | 327° |
| 2026-05-08 04:00 | 49.16174 | -122.98487 | 4134 ft | 222 kts | 326° |
| 2026-05-08 04:00 | 49.17382 | -122.99875 | 3659 ft | 212 kts | 316° |
| 2026-05-08 04:00 | 49.18218 | -123.01546 | 3433 ft | 183 kts | 300° |
| 2026-05-08 04:00 | 49.18702 | -123.03263 | 3100 ft | 166 kts | 287° |
| 2026-05-08 04:01 | 49.18904 | -123.04939 | 2694 ft | 155 kts | 277° |
| 2026-05-08 04:01 | 49.19033 | -123.06521 | 2303 ft | 147 kts | 276° |
| 2026-05-08 04:01 | 49.19154 | -123.08027 | 1941 ft | 136 kts | 277° |
| 2026-05-08 04:01 | 49.19299 | -123.09410 | 1560 ft | 132 kts | 279° |
| 2026-05-08 04:02 | 49.19465 | -123.10765 | 1160 ft | 130 kts | 278° |
| 2026-05-08 04:02 | 49.19618 | -123.12132 | 836 ft | 129 kts | 276° |
| 2026-05-08 04:02 | 49.19770 | -123.13464 | 521 ft | 125 kts | 275° |
| 2026-05-08 04:02 | 49.19909 | -123.14744 | 257 ft | 124 kts | 276° |
| 2026-05-08 04:03 | 49.20064 | -123.16071 | 78 ft | 129 kts | 276° |
| 2026-05-08 04:03 | 49.20292 | -123.18126 | 22 ft | 44 kts | 278° |
| 2026-05-08 04:03 | 49.20303 | -123.18395 | 22 ft | 13 kts | 263° |
| 2026-05-08 04:04 | 49.20282 | -123.18554 | 22 ft | 16 kts | 251° |
| 2026-05-08 04:04 | 49.20243 | -123.18722 | 22 ft | 18 kts | 250° |
| 2026-05-08 04:04 | 49.20205 | -123.18876 | 22 ft | 16 kts | 250° |
| 2026-05-08 04:04 | 49.20135 | -123.19027 | 22 ft | 20 kts | 198° |
| 2026-05-08 04:05 | 49.19993 | -123.19067 | 22 ft | 17 kts | 190° |
| 2026-05-08 04:05 | 49.19896 | -123.19098 | 22 ft | 14 kts | 192° |
| 2026-05-08 04:05 | 49.19766 | -123.19132 | 22 ft | 23 kts | 190° |
| 2026-05-08 04:05 | 49.19613 | -123.19169 | 22 ft | 14 kts | 185° |
| 2026-05-08 04:06 | 49.19524 | -123.19127 | 22 ft | 17 kts | 143° |
| 2026-05-08 04:06 | 49.19424 | -123.19009 | 22 ft | 15 kts | 141° |
| 2026-05-08 04:06 | 49.19373 | -123.18925 | 22 ft | 10 kts | 98° |
| 2026-05-08 04:06 | 49.19386 | -123.18804 | 22 ft | 3 kts | 79° |
| 2026-05-08 04:07 | 49.19390 | -123.18765 | 22 ft | 8 kts | 80° |
| 2026-05-08 04:07 | 49.19402 | -123.18664 | 22 ft | 10 kts | 81° |
| 2026-05-08 04:07 | 49.19414 | -123.18562 | 22 ft | 7 kts | 62° |
| 2026-05-08 04:07 | 49.19476 | -123.18537 | 22 ft | 9 kts | 9° |
| 2026-05-08 04:08 | 49.19518 | -123.18515 | 22 ft | 3 kts | 52° |
| 2026-05-08 04:08 | 49.19518 | -123.18486 | 22 ft | 0 kts | 126° |
| 2026-05-08 04:08 | 49.19514 | -123.18478 | 22 ft | 0 kts | 126° |